sensor_id;sensor_type;location;lat;lon;timestamp;pressure;altitude;pressure_sealevel;temperature;humidity
54882;BME280;40775;51.448;4.742;2023-02-28T00:01:29;103020.72;;;1.85;100.00
54882;BME280;40775;51.448;4.742;2023-02-28T00:03:57;103021.59;;;1.76;100.00
54882;BME280;40775;51.448;4.742;2023-02-28T00:06:26;103018.38;;;1.78;100.00
54882;BME280;40775;51.448;4.742;2023-02-28T00:08:53;103031.97;;;1.76;100.00
54882;BME280;40775;51.448;4.742;2023-02-28T00:11:21;103033.84;;;1.68;100.00
54882;BME280;40775;51.448;4.742;2023-02-28T00:13:48;103025.59;;;1.72;100.00
54882;BME280;40775;51.448;4.742;2023-02-28T00:16:21;103026.09;;;1.68;100.00
54882;BME280;40775;51.448;4.742;2023-02-28T00:18:49;103018.47;;;1.70;100.00
54882;BME280;40775;51.448;4.742;2023-02-28T00:21:18;103014.97;;;1.69;100.00
54882;BME280;40775;51.448;4.742;2023-02-28T00:23:46;103010.34;;;1.75;100.00
54882;BME280;40775;51.448;4.742;2023-02-28T00:26:13;103016.00;;;1.71;100.00
54882;BME280;40775;51.448;4.742;2023-02-28T00:28:40;103012.78;;;1.74;100.00
54882;BME280;40775;51.448;4.742;2023-02-28T00:31:07;103012.56;;;1.81;100.00
54882;BME280;40775;51.448;4.742;2023-02-28T00:33:34;103011.25;;;1.76;100.00
54882;BME280;40775;51.448;4.742;2023-02-28T00:36:08;103008.91;;;1.79;100.00
54882;BME280;40775;51.448;4.742;2023-02-28T00:38:38;103006.97;;;1.76;100.00
54882;BME280;40775;51.448;4.742;2023-02-28T00:41:06;103006.00;;;1.66;100.00
54882;BME280;40775;51.448;4.742;2023-02-28T00:43:36;103018.38;;;1.60;100.00
54882;BME280;40775;51.448;4.742;2023-02-28T00:46:04;103017.06;;;1.54;100.00
54882;BME280;40775;51.448;4.742;2023-02-28T00:48:32;103013.34;;;1.61;100.00
54882;BME280;40775;51.448;4.742;2023-02-28T00:51:00;103015.28;;;1.64;100.00
54882;BME280;40775;51.448;4.742;2023-02-28T00:53:28;103004.94;;;1.64;100.00
54882;BME280;40775;51.448;4.742;2023-02-28T00:55:55;103007.53;;;1.64;100.00
54882;BME280;40775;51.448;4.742;2023-02-28T00:58:22;103012.56;;;1.62;100.00
54882;BME280;40775;51.448;4.742;2023-02-28T01:00:53;103008.66;;;1.57;100.00
54882;BME280;40775;51.448;4.742;2023-02-28T01:03:21;103013.56;;;1.54;100.00
54882;BME280;40775;51.448;4.742;2023-02-28T01:05:49;103016.34;;;1.47;100.00
54882;BME280;40775;51.448;4.742;2023-02-28T01:08:16;103020.06;;;1.40;100.00
54882;BME280;40775;51.448;4.742;2023-02-28T01:10:43;103013.34;;;1.42;100.00
54882;BME280;40775;51.448;4.742;2023-02-28T01:13:12;103023.75;;;1.34;100.00
54882;BME280;40775;51.448;4.742;2023-02-28T01:15:46;103013.25;;;1.32;100.00
54882;BME280;40775;51.448;4.742;2023-02-28T01:18:15;103026.03;;;1.39;100.00
54882;BME280;40775;51.448;4.742;2023-02-28T01:20:42;103023.59;;;1.32;100.00
54882;BME280;40775;51.448;4.742;2023-02-28T01:23:10;103027.59;;;1.29;100.00
54882;BME280;40775;51.448;4.742;2023-02-28T01:25:37;103035.34;;;1.29;100.00
54882;BME280;40775;51.448;4.742;2023-02-28T01:28:05;103045.56;;;1.27;100.00
54882;BME280;40775;51.448;4.742;2023-02-28T01:30:32;103035.91;;;1.35;100.00
54882;BME280;40775;51.448;4.742;2023-02-28T01:33:00;103039.56;;;1.37;100.00
54882;BME280;40775;51.448;4.742;2023-02-28T01:35:27;103033.16;;;1.42;100.00
54882;BME280;40775;51.448;4.742;2023-02-28T01:37:54;103038.47;;;1.43;100.00
54882;BME280;40775;51.448;4.742;2023-02-28T01:40:21;103032.56;;;1.36;100.00
54882;BME280;40775;51.448;4.742;2023-02-28T01:42:49;103028.94;;;1.52;100.00
54882;BME280;40775;51.448;4.742;2023-02-28T01:45:30;103027.84;;;1.40;100.00
54882;BME280;40775;51.448;4.742;2023-02-28T01:48:05;103036.28;;;1.48;100.00
54882;BME280;40775;51.448;4.742;2023-02-28T01:50:41;103034.19;;;1.44;100.00
54882;BME280;40775;51.448;4.742;2023-02-28T01:53:21;103031.34;;;1.41;100.00
54882;BME280;40775;51.448;4.742;2023-02-28T01:55:52;103033.19;;;1.33;100.00
54882;BME280;40775;51.448;4.742;2023-02-28T01:58:20;103031.50;;;1.34;100.00
54882;BME280;40775;51.448;4.742;2023-02-28T02:00:48;103017.03;;;1.36;100.00
54882;BME280;40775;51.448;4.742;2023-02-28T02:03:17;103016.63;;;1.31;100.00
54882;BME280;40775;51.448;4.742;2023-02-28T02:05:48;103021.44;;;1.18;100.00
54882;BME280;40775;51.448;4.742;2023-02-28T02:08:23;103013.19;;;1.22;100.00
54882;BME280;40775;51.448;4.742;2023-02-28T02:11:00;103016.53;;;1.21;100.00
54882;BME280;40775;51.448;4.742;2023-02-28T02:22:09;103008.94;;;1.22;100.00
54882;BME280;40775;51.448;4.742;2023-02-28T02:36:47;102999.56;;;1.33;100.00
54882;BME280;40775;51.448;4.742;2023-02-28T02:43:01;102996.19;;;1.34;100.00
54882;BME280;40775;51.448;4.742;2023-02-28T02:45:52;102997.09;;;1.35;100.00
54882;BME280;40775;51.448;4.742;2023-02-28T02:48:27;102998.16;;;1.37;100.00
54882;BME280;40775;51.448;4.742;2023-02-28T02:51:00;103002.88;;;1.41;100.00
54882;BME280;40775;51.448;4.742;2023-02-28T02:53:35;103009.72;;;1.40;100.00
54882;BME280;40775;51.448;4.742;2023-02-28T02:56:06;102995.25;;;1.42;100.00
54882;BME280;40775;51.448;4.742;2023-02-28T02:58:39;103008.19;;;1.42;100.00
54882;BME280;40775;51.448;4.742;2023-02-28T03:01:14;103001.09;;;1.50;100.00
54882;BME280;40775;51.448;4.742;2023-02-28T03:03:43;103008.38;;;1.54;100.00
54882;BME280;40775;51.448;4.742;2023-02-28T03:06:11;103003.97;;;1.53;100.00
54882;BME280;40775;51.448;4.742;2023-02-28T03:08:38;103000.75;;;1.55;100.00
54882;BME280;40775;51.448;4.742;2023-02-28T03:11:13;103002.28;;;1.53;100.00
54882;BME280;40775;51.448;4.742;2023-02-28T03:31:15;102994.78;;;1.75;100.00
54882;BME280;40775;51.448;4.742;2023-02-28T03:33:51;102995.19;;;1.80;100.00
54882;BME280;40775;51.448;4.742;2023-02-28T03:36:35;102988.22;;;1.79;100.00
54882;BME280;40775;51.448;4.742;2023-02-28T03:39:56;102990.16;;;1.81;100.00
54882;BME280;40775;51.448;4.742;2023-02-28T03:42:28;102983.44;;;1.83;100.00
54882;BME280;40775;51.448;4.742;2023-02-28T03:45:19;102982.66;;;1.84;100.00
54882;BME280;40775;51.448;4.742;2023-02-28T03:47:59;102996.66;;;1.86;100.00
54882;BME280;40775;51.448;4.742;2023-02-28T03:50:39;102998.34;;;1.86;100.00
54882;BME280;40775;51.448;4.742;2023-02-28T03:56:18;102992.97;;;1.93;100.00
54882;BME280;40775;51.448;4.742;2023-02-28T03:58:55;102992.84;;;2.02;100.00
54882;BME280;40775;51.448;4.742;2023-02-28T04:01:39;102988.19;;;1.98;100.00
54882;BME280;40775;51.448;4.742;2023-02-28T04:04:10;102997.78;;;1.99;100.00
54882;BME280;40775;51.448;4.742;2023-02-28T04:06:37;103006.84;;;2.04;100.00
54882;BME280;40775;51.448;4.742;2023-02-28T04:09:07;103004.81;;;2.10;100.00
54882;BME280;40775;51.448;4.742;2023-02-28T04:11:48;103001.44;;;2.11;100.00
54882;BME280;40775;51.448;4.742;2023-02-28T04:14:18;103010.38;;;2.14;100.00
54882;BME280;40775;51.448;4.742;2023-02-28T04:16:45;103013.38;;;2.19;100.00
54882;BME280;40775;51.448;4.742;2023-02-28T04:19:13;103007.94;;;2.16;100.00
54882;BME280;40775;51.448;4.742;2023-02-28T04:21:47;103010.53;;;2.16;100.00
54882;BME280;40775;51.448;4.742;2023-02-28T04:24:22;103014.47;;;2.21;100.00
54882;BME280;40775;51.448;4.742;2023-02-28T04:26:52;103011.44;;;2.16;100.00
54882;BME280;40775;51.448;4.742;2023-02-28T04:29:27;103007.28;;;2.18;100.00
54882;BME280;40775;51.448;4.742;2023-02-28T04:31:55;103010.97;;;2.21;100.00
54882;BME280;40775;51.448;4.742;2023-02-28T04:34:28;103006.94;;;2.24;100.00
54882;BME280;40775;51.448;4.742;2023-02-28T04:36:56;103014.72;;;2.24;100.00
54882;BME280;40775;51.448;4.742;2023-02-28T04:39:38;103009.81;;;2.27;100.00
54882;BME280;40775;51.448;4.742;2023-02-28T04:42:06;103012.53;;;2.29;100.00
54882;BME280;40775;51.448;4.742;2023-02-28T04:44:33;103007.47;;;2.30;100.00
54882;BME280;40775;51.448;4.742;2023-02-28T04:47:00;103009.44;;;2.33;100.00
54882;BME280;40775;51.448;4.742;2023-02-28T04:49:27;103014.63;;;2.33;100.00
54882;BME280;40775;51.448;4.742;2023-02-28T04:51:54;103006.47;;;2.38;100.00
54882;BME280;40775;51.448;4.742;2023-02-28T04:54:22;103011.50;;;2.37;100.00
54882;BME280;40775;51.448;4.742;2023-02-28T04:56:49;103019.44;;;2.38;100.00
54882;BME280;40775;51.448;4.742;2023-02-28T04:59:17;103024.88;;;2.41;100.00
54882;BME280;40775;51.448;4.742;2023-02-28T05:01:48;103027.47;;;2.41;100.00
54882;BME280;40775;51.448;4.742;2023-02-28T05:04:17;103028.50;;;2.43;100.00
54882;BME280;40775;51.448;4.742;2023-02-28T05:06:44;103034.91;;;2.47;100.00
54882;BME280;40775;51.448;4.742;2023-02-28T05:09:11;103036.41;;;2.45;100.00
54882;BME280;40775;51.448;4.742;2023-02-28T05:11:39;103035.03;;;2.48;100.00
54882;BME280;40775;51.448;4.742;2023-02-28T05:14:12;103026.88;;;2.54;100.00
54882;BME280;40775;51.448;4.742;2023-02-28T05:16:39;103026.63;;;2.51;100.00
54882;BME280;40775;51.448;4.742;2023-02-28T05:19:06;103034.91;;;2.57;100.00
54882;BME280;40775;51.448;4.742;2023-02-28T05:22:00;103033.09;;;2.56;100.00
54882;BME280;40775;51.448;4.742;2023-02-28T05:24:26;103033.38;;;2.59;100.00
54882;BME280;40775;51.448;4.742;2023-02-28T05:26:54;103030.50;;;2.56;100.00
54882;BME280;40775;51.448;4.742;2023-02-28T05:29:22;103033.88;;;2.55;100.00
54882;BME280;40775;51.448;4.742;2023-02-28T05:31:49;103046.09;;;2.66;100.00
54882;BME280;40775;51.448;4.742;2023-02-28T05:34:16;103040.75;;;2.65;100.00
54882;BME280;40775;51.448;4.742;2023-02-28T05:36:43;103041.94;;;2.68;100.00
54882;BME280;40775;51.448;4.742;2023-02-28T05:39:10;103032.34;;;2.67;100.00
54882;BME280;40775;51.448;4.742;2023-02-28T05:41:41;103046.47;;;2.71;100.00
54882;BME280;40775;51.448;4.742;2023-02-28T05:44:09;103049.72;;;2.68;100.00
54882;BME280;40775;51.448;4.742;2023-02-28T05:46:36;103034.56;;;2.73;100.00
54882;BME280;40775;51.448;4.742;2023-02-28T05:49:03;103043.25;;;2.73;100.00
54882;BME280;40775;51.448;4.742;2023-02-28T05:51:31;103050.28;;;2.74;100.00
54882;BME280;40775;51.448;4.742;2023-02-28T05:54:00;103036.09;;;2.71;100.00
54882;BME280;40775;51.448;4.742;2023-02-28T05:56:28;103047.69;;;2.74;100.00
54882;BME280;40775;51.448;4.742;2023-02-28T05:58:55;103041.22;;;2.79;100.00
54882;BME280;40775;51.448;4.742;2023-02-28T06:01:37;103054.69;;;2.75;100.00
54882;BME280;40775;51.448;4.742;2023-02-28T06:04:07;103053.13;;;2.77;100.00
54882;BME280;40775;51.448;4.742;2023-02-28T06:06:38;103052.88;;;2.85;100.00
54882;BME280;40775;51.448;4.742;2023-02-28T06:09:06;103056.78;;;2.79;100.00
54882;BME280;40775;51.448;4.742;2023-02-28T06:11:33;103047.44;;;2.82;100.00
54882;BME280;40775;51.448;4.742;2023-02-28T06:14:01;103051.84;;;2.83;100.00
54882;BME280;40775;51.448;4.742;2023-02-28T06:16:30;103041.22;;;2.79;100.00
54882;BME280;40775;51.448;4.742;2023-02-28T06:18:59;103045.63;;;2.91;100.00
54882;BME280;40775;51.448;4.742;2023-02-28T06:21:28;103041.97;;;2.78;100.00
54882;BME280;40775;51.448;4.742;2023-02-28T06:23:57;103034.72;;;2.85;100.00
54882;BME280;40775;51.448;4.742;2023-02-28T06:26:25;103036.66;;;2.87;100.00
54882;BME280;40775;51.448;4.742;2023-02-28T06:28:53;103038.34;;;2.87;100.00
54882;BME280;40775;51.448;4.742;2023-02-28T06:31:21;103044.97;;;2.83;100.00
54882;BME280;40775;51.448;4.742;2023-02-28T06:33:49;103050.28;;;2.74;100.00
54882;BME280;40775;51.448;4.742;2023-02-28T06:36:17;103050.28;;;2.85;100.00
54882;BME280;40775;51.448;4.742;2023-02-28T06:38:44;103053.94;;;2.87;100.00
54882;BME280;40775;51.448;4.742;2023-02-28T06:41:11;103020.97;;;2.86;100.00
54882;BME280;40775;51.448;4.742;2023-02-28T06:43:42;103025.91;;;2.83;100.00
54882;BME280;40775;51.448;4.742;2023-02-28T06:46:13;103049.72;;;4.64;100.00
54882;BME280;40775;51.448;4.742;2023-02-28T06:48:43;103045.91;;;6.90;100.00
54882;BME280;40775;51.448;4.742;2023-02-28T06:51:15;103026.47;;;8.27;100.00
54882;BME280;40775;51.448;4.742;2023-02-28T06:53:43;103026.56;;;9.11;100.00
54882;BME280;40775;51.448;4.742;2023-02-28T06:56:12;103021.97;;;9.51;100.00
54882;BME280;40775;51.448;4.742;2023-02-28T06:58:41;103014.28;;;9.84;100.00
54882;BME280;40775;51.448;4.742;2023-02-28T07:01:08;103025.22;;;10.06;100.00
54882;BME280;40775;51.448;4.742;2023-02-28T07:03:36;103022.41;;;10.18;100.00
54882;BME280;40775;51.448;4.742;2023-02-28T07:06:05;103027.78;;;10.36;100.00
54882;BME280;40775;51.448;4.742;2023-02-28T07:08:33;103026.69;;;10.47;100.00
54882;BME280;40775;51.448;4.742;2023-02-28T07:11:01;103027.09;;;10.55;100.00
54882;BME280;40775;51.448;4.742;2023-02-28T07:13:29;103038.09;;;10.64;100.00
54882;BME280;40775;51.448;4.742;2023-02-28T07:15:59;103037.66;;;10.71;100.00
54882;BME280;40775;51.448;4.742;2023-02-28T07:18:27;103039.88;;;10.79;100.00
54882;BME280;40775;51.448;4.742;2023-02-28T07:20:54;103033.22;;;10.86;100.00
54882;BME280;40775;51.448;4.742;2023-02-28T07:23:22;103037.97;;;10.93;100.00
54882;BME280;40775;51.448;4.742;2023-02-28T07:25:50;103039.16;;;10.98;100.00
54882;BME280;40775;51.448;4.742;2023-02-28T07:28:18;103033.97;;;11.00;100.00
54882;BME280;40775;51.448;4.742;2023-02-28T07:30:45;103045.63;;;11.05;100.00
54882;BME280;40775;51.448;4.742;2023-02-28T07:33:13;103042.50;;;11.12;100.00
54882;BME280;40775;51.448;4.742;2023-02-28T07:35:40;103036.50;;;11.14;100.00
54882;BME280;40775;51.448;4.742;2023-02-28T07:38:08;103041.91;;;11.18;100.00
54882;BME280;40775;51.448;4.742;2023-02-28T07:40:36;103036.91;;;11.22;100.00
54882;BME280;40775;51.448;4.742;2023-02-28T07:43:03;103044.06;;;11.25;100.00
54882;BME280;40775;51.448;4.742;2023-02-28T07:45:31;103047.69;;;11.27;100.00
54882;BME280;40775;51.448;4.742;2023-02-28T07:48:01;103044.47;;;11.32;100.00
54882;BME280;40775;51.448;4.742;2023-02-28T07:50:30;103041.09;;;11.35;100.00
54882;BME280;40775;51.448;4.742;2023-02-28T07:52:58;103045.59;;;11.37;100.00
54882;BME280;40775;51.448;4.742;2023-02-28T07:55:26;103052.00;;;11.42;100.00
54882;BME280;40775;51.448;4.742;2023-02-28T07:57:53;103046.00;;;11.45;100.00
54882;BME280;40775;51.448;4.742;2023-02-28T08:00:21;103044.41;;;11.49;100.00
54882;BME280;40775;51.448;4.742;2023-02-28T08:02:48;103044.69;;;11.53;100.00
54882;BME280;40775;51.448;4.742;2023-02-28T08:05:15;103052.66;;;11.55;100.00
54882;BME280;40775;51.448;4.742;2023-02-28T08:07:42;103048.38;;;11.57;100.00
54882;BME280;40775;51.448;4.742;2023-02-28T08:10:10;103046.88;;;11.62;100.00
54882;BME280;40775;51.448;4.742;2023-02-28T08:12:37;103050.47;;;11.64;100.00
54882;BME280;40775;51.448;4.742;2023-02-28T08:15:04;103054.09;;;11.66;100.00
54882;BME280;40775;51.448;4.742;2023-02-28T08:17:32;103052.44;;;11.68;100.00
54882;BME280;40775;51.448;4.742;2023-02-28T08:20:01;103054.41;;;11.72;100.00
54882;BME280;40775;51.448;4.742;2023-02-28T08:22:28;103055.53;;;11.77;100.00
54882;BME280;40775;51.448;4.742;2023-02-28T08:24:55;103045.00;;;11.77;100.00
54882;BME280;40775;51.448;4.742;2023-02-28T08:27:22;103054.63;;;11.76;100.00
54882;BME280;40775;51.448;4.742;2023-02-28T08:29:49;103046.66;;;11.75;100.00
54882;BME280;40775;51.448;4.742;2023-02-28T08:32:16;103052.22;;;11.80;100.00
54882;BME280;40775;51.448;4.742;2023-02-28T08:34:56;103050.41;;;11.79;100.00
54882;BME280;40775;51.448;4.742;2023-02-28T08:37:23;103053.13;;;11.80;100.00
54882;BME280;40775;51.448;4.742;2023-02-28T08:39:50;103045.91;;;11.77;100.00
54882;BME280;40775;51.448;4.742;2023-02-28T08:42:21;103046.94;;;11.80;100.00
54882;BME280;40775;51.448;4.742;2023-02-28T08:44:48;103047.63;;;11.77;100.00
54882;BME280;40775;51.448;4.742;2023-02-28T08:47:15;103046.56;;;11.73;100.00
54882;BME280;40775;51.448;4.742;2023-02-28T08:49:42;103049.06;;;11.70;100.00
54882;BME280;40775;51.448;4.742;2023-02-28T08:52:09;103040.41;;;11.73;100.00
54882;BME280;40775;51.448;4.742;2023-02-28T08:54:36;103033.50;;;11.75;100.00
54882;BME280;40775;51.448;4.742;2023-02-28T08:57:03;103039.88;;;11.79;100.00
54882;BME280;40775;51.448;4.742;2023-02-28T08:59:30;103038.00;;;11.77;100.00
54882;BME280;40775;51.448;4.742;2023-02-28T09:01:57;103039.06;;;11.80;100.00
54882;BME280;40775;51.448;4.742;2023-02-28T09:04:24;103039.75;;;11.77;100.00
54882;BME280;40775;51.448;4.742;2023-02-28T09:06:52;103046.88;;;11.78;100.00
54882;BME280;40775;51.448;4.742;2023-02-28T09:09:19;103044.31;;;11.80;100.00
54882;BME280;40775;51.448;4.742;2023-02-28T09:11:46;103033.88;;;11.81;100.00
54882;BME280;40775;51.448;4.742;2023-02-28T09:14:13;103043.50;;;11.81;100.00
54882;BME280;40775;51.448;4.742;2023-02-28T09:16:40;103034.63;;;11.79;100.00
54882;BME280;40775;51.448;4.742;2023-02-28T09:19:11;103040.63;;;11.77;100.00
54882;BME280;40775;51.448;4.742;2023-02-28T09:21:39;103045.44;;;11.85;100.00
54882;BME280;40775;51.448;4.742;2023-02-28T09:24:07;103043.72;;;11.85;100.00
54882;BME280;40775;51.448;4.742;2023-02-28T09:26:34;103051.47;;;11.82;100.00
54882;BME280;40775;51.448;4.742;2023-02-28T09:29:13;103044.41;;;11.81;100.00
54882;BME280;40775;51.448;4.742;2023-02-28T09:31:41;103043.19;;;11.76;100.00
54882;BME280;40775;51.448;4.742;2023-02-28T09:34:08;103047.03;;;11.81;100.00
54882;BME280;40775;51.448;4.742;2023-02-28T09:36:36;103041.63;;;11.78;100.00
54882;BME280;40775;51.448;4.742;2023-02-28T09:39:13;103035.38;;;11.77;100.00
54882;BME280;40775;51.448;4.742;2023-02-28T09:41:45;103046.19;;;11.82;100.00
54882;BME280;40775;51.448;4.742;2023-02-28T09:44:43;103051.53;;;11.84;100.00
54882;BME280;40775;51.448;4.742;2023-02-28T09:47:31;103048.00;;;11.83;100.00
54882;BME280;40775;51.448;4.742;2023-02-28T09:52:49;103041.75;;;11.81;100.00
54882;BME280;40775;51.448;4.742;2023-02-28T09:55:33;103046.94;;;11.80;100.00
54882;BME280;40775;51.448;4.742;2023-02-28T09:58:45;103038.97;;;11.78;100.00
54882;BME280;40775;51.448;4.742;2023-02-28T10:05:03;103051.03;;;11.74;100.00
54882;BME280;40775;51.448;4.742;2023-02-28T10:08:36;103044.03;;;11.75;100.00
54882;BME280;40775;51.448;4.742;2023-02-28T10:11:01;103034.63;;;11.79;100.00
54882;BME280;40775;51.448;4.742;2023-02-28T10:14:00;103031.25;;;11.81;100.00
54882;BME280;40775;51.448;4.742;2023-02-28T10:22:27;103030.03;;;11.76;100.00
54882;BME280;40775;51.448;4.742;2023-02-28T10:24:56;103033.88;;;11.81;100.00
54882;BME280;40775;51.448;4.742;2023-02-28T10:27:32;103032.75;;;11.77;100.00
54882;BME280;40775;51.448;4.742;2023-02-28T10:30:01;103030.03;;;11.76;100.00
54882;BME280;40775;51.448;4.742;2023-02-28T10:32:33;103028.31;;;11.76;100.00
54882;BME280;40775;51.448;4.742;2023-02-28T10:37:42;103028.44;;;11.78;100.00
54882;BME280;40775;51.448;4.742;2023-02-28T10:40:33;103018.06;;;11.81;100.00
54882;BME280;40775;51.448;4.742;2023-02-28T10:43:19;103023.25;;;11.80;100.00
54882;BME280;40775;51.448;4.742;2023-02-28T10:46:04;103014.25;;;11.76;100.00
54882;BME280;40775;51.448;4.742;2023-02-28T10:49:00;103020.63;;;11.80;100.00
54882;BME280;40775;51.448;4.742;2023-02-28T10:51:39;103006.66;;;11.81;100.00
54882;BME280;40775;51.448;4.742;2023-02-28T10:54:35;103012.81;;;11.81;100.00
54882;BME280;40775;51.448;4.742;2023-02-28T10:57:16;103007.69;;;11.84;100.00
54882;BME280;40775;51.448;4.742;2023-02-28T10:59:45;103000.63;;;11.83;100.00
54882;BME280;40775;51.448;4.742;2023-02-28T11:02:36;102995.50;;;11.86;100.00
54882;BME280;40775;51.448;4.742;2023-02-28T11:05:32;102999.13;;;11.88;100.00
54882;BME280;40775;51.448;4.742;2023-02-28T11:08:19;102991.91;;;11.84;100.00
54882;BME280;40775;51.448;4.742;2023-02-28T11:10:53;103006.88;;;11.85;100.00
54882;BME280;40775;51.448;4.742;2023-02-28T11:13:31;102997.31;;;11.87;100.00
54882;BME280;40775;51.448;4.742;2023-02-28T11:16:02;103006.19;;;11.89;100.00
54882;BME280;40775;51.448;4.742;2023-02-28T11:18:46;102991.31;;;11.90;100.00
54882;BME280;40775;51.448;4.742;2023-02-28T11:21:35;102992.34;;;11.93;100.00
54882;BME280;40775;51.448;4.742;2023-02-28T11:24:33;102992.63;;;11.99;100.00
54882;BME280;40775;51.448;4.742;2023-02-28T11:27:02;102989.66;;;11.92;100.00
54882;BME280;40775;51.448;4.742;2023-02-28T11:29:32;102993.25;;;11.94;100.00
54882;BME280;40775;51.448;4.742;2023-02-28T11:32:13;102992.34;;;11.93;100.00
54882;BME280;40775;51.448;4.742;2023-02-28T11:34:43;102988.88;;;11.94;100.00
54882;BME280;40775;51.448;4.742;2023-02-28T11:37:18;102993.25;;;11.94;100.00
54882;BME280;40775;51.448;4.742;2023-02-28T11:39:46;102987.91;;;11.92;100.00
54882;BME280;40775;51.448;4.742;2023-02-28T11:45:19;102978.13;;;11.90;100.00
54882;BME280;40775;51.448;4.742;2023-02-28T11:50:47;102974.69;;;11.91;100.00
54882;BME280;40775;51.448;4.742;2023-02-28T11:56:36;102974.97;;;11.97;100.00
54882;BME280;40775;51.448;4.742;2023-02-28T12:03:08;102961.06;;;11.99;100.00
54882;BME280;40775;51.448;4.742;2023-02-28T12:06:13;102959.38;;;12.01;100.00
54882;BME280;40775;51.448;4.742;2023-02-28T12:20:53;102940.59;;;12.12;100.00
54882;BME280;40775;51.448;4.742;2023-02-28T12:26:53;102950.59;;;12.01;100.00
54882;BME280;40775;51.448;4.742;2023-02-28T12:29:33;102927.94;;;12.04;100.00
54882;BME280;40775;51.448;4.742;2023-02-28T12:32:47;102928.25;;;12.11;100.00
54882;BME280;40775;51.448;4.742;2023-02-28T12:35:18;102922.78;;;12.06;100.00
54882;BME280;40775;51.448;4.742;2023-02-28T12:40:54;102920.50;;;12.14;100.00
54882;BME280;40775;51.448;4.742;2023-02-28T12:43:30;102925.63;;;12.11;100.00
54882;BME280;40775;51.448;4.742;2023-02-28T12:46:12;102937.88;;;12.10;100.00
54882;BME280;40775;51.448;4.742;2023-02-28T12:48:50;102923.13;;;12.14;100.00
54882;BME280;40775;51.448;4.742;2023-02-28T12:51:20;102922.22;;;12.13;100.00
54882;BME280;40775;51.448;4.742;2023-02-28T12:56:52;102923.28;;;12.17;100.00
54882;BME280;40775;51.448;4.742;2023-02-28T12:59:53;102924.19;;;12.17;100.00
54882;BME280;40775;51.448;4.742;2023-02-28T13:02:39;102913.63;;;12.17;100.00
54882;BME280;40775;51.448;4.742;2023-02-28T13:09:11;102908.31;;;12.16;100.00
54882;BME280;40775;51.448;4.742;2023-02-28T13:11:50;102897.84;;;12.17;100.00
54882;BME280;40775;51.448;4.742;2023-02-28T13:14:36;102897.16;;;12.21;100.00
54882;BME280;40775;51.448;4.742;2023-02-28T13:19:57;102886.69;;;12.23;100.00
54882;BME280;40775;51.448;4.742;2023-02-28T13:24:56;102884.13;;;12.24;100.00
54882;BME280;40775;51.448;4.742;2023-02-28T13:29:52;102886.69;;;12.23;100.00
54882;BME280;40775;51.448;4.742;2023-02-28T13:42:47;102875.31;;;12.24;100.00
54882;BME280;40775;51.448;4.742;2023-02-28T13:45:23;102874.34;;;12.22;100.00
54882;BME280;40775;51.448;4.742;2023-02-28T13:48:02;102870.94;;;12.24;100.00
54882;BME280;40775;51.448;4.742;2023-02-28T13:50:37;102869.34;;;12.28;100.00
54882;BME280;40775;51.448;4.742;2023-02-28T13:56:04;102875.59;;;12.30;100.00
54882;BME280;40775;51.448;4.742;2023-02-28T14:01:31;102869.50;;;12.31;100.00
54882;BME280;40775;51.448;4.742;2023-02-28T14:06:54;102864.16;;;12.29;100.00
54882;BME280;40775;51.448;4.742;2023-02-28T14:09:39;102872.69;;;12.24;100.00
54882;BME280;40775;51.448;4.742;2023-02-28T14:15:54;102869.28;;;12.26;100.00
54882;BME280;40775;51.448;4.742;2023-02-28T14:18:49;102866.94;;;12.32;100.00
54882;BME280;40775;51.448;4.742;2023-02-28T14:21:34;102870.41;;;12.31;100.00
54882;BME280;40775;51.448;4.742;2023-02-28T14:24:25;102866.19;;;12.35;100.00
54882;BME280;40775;51.448;4.742;2023-02-28T14:36:27;102864.66;;;12.40;100.00
54882;BME280;40775;51.448;4.742;2023-02-28T14:39:06;102864.53;;;12.37;100.00
54882;BME280;40775;51.448;4.742;2023-02-28T14:41:37;102857.59;;;12.39;100.00
54882;BME280;40775;51.448;4.742;2023-02-28T14:44:26;102866.47;;;12.41;100.00
54882;BME280;40775;51.448;4.742;2023-02-28T14:46:56;102861.25;;;12.43;100.00
54882;BME280;40775;51.448;4.742;2023-02-28T14:49:35;102856.84;;;12.42;100.00
54882;BME280;40775;51.448;4.742;2023-02-28T14:52:20;102855.16;;;12.44;100.00
54882;BME280;40775;51.448;4.742;2023-02-28T14:55:03;102855.22;;;12.45;100.00
54882;BME280;40775;51.448;4.742;2023-02-28T14:57:34;102850.78;;;12.44;100.00
54882;BME280;40775;51.448;4.742;2023-02-28T15:00:22;102851.56;;;12.42;100.00
54882;BME280;40775;51.448;4.742;2023-02-28T15:02:50;102853.50;;;12.46;100.00
54882;BME280;40775;51.448;4.742;2023-02-28T15:05:30;102856.84;;;12.42;100.00
54882;BME280;40775;51.448;4.742;2023-02-28T15:08:12;102847.13;;;12.41;100.00
54882;BME280;40775;51.448;4.742;2023-02-28T15:13:21;102844.88;;;12.50;100.00
54882;BME280;40775;51.448;4.742;2023-02-28T15:16:03;102844.00;;;12.49;100.00
54882;BME280;40775;51.448;4.742;2023-02-28T15:21:10;102844.06;;;12.51;100.00
54882;BME280;40775;51.448;4.742;2023-02-28T15:23:42;102846.63;;;12.49;100.00
54882;BME280;40775;51.448;4.742;2023-02-28T15:26:20;102849.41;;;12.52;100.00
54882;BME280;40775;51.448;4.742;2023-02-28T15:28:58;102841.28;;;12.48;100.00
54882;BME280;40775;51.448;4.742;2023-02-28T15:31:29;102846.56;;;12.48;100.00
54882;BME280;40775;51.448;4.742;2023-02-28T15:36:54;102845.94;;;12.53;100.00
54882;BME280;40775;51.448;4.742;2023-02-28T15:39:28;102847.84;;;12.57;100.00
54882;BME280;40775;51.448;4.742;2023-02-28T15:42:16;102854.94;;;12.58;100.00